sensor_id;sensor_type;location;lat;lon;timestamp;pressure;altitude;pressure_sealevel;temperature;humidity
48778;BME280;34578;0.000;0.000;2023-05-25T00:04:53;96857.25;;;17.97;60.10
48778;BME280;34578;0.000;0.000;2023-05-25T00:09:53;96855.56;;;17.96;60.39
48778;BME280;34578;0.000;0.000;2023-05-25T00:14:53;96859.78;;;17.94;60.05
48778;BME280;34578;0.000;0.000;2023-05-25T00:19:54;96857.25;;;17.94;60.02
48778;BME280;34578;0.000;0.000;2023-05-25T00:24:57;96848.84;;;18.04;62.57
48778;BME280;34578;0.000;0.000;2023-05-25T00:29:57;96848.06;;;18.17;66.28
48778;BME280;34578;0.000;0.000;2023-05-25T00:34:58;96843.00;;;18.20;65.53
48778;BME280;34578;0.000;0.000;2023-05-25T00:39:58;96838.75;;;18.07;63.26
48778;BME280;34578;0.000;0.000;2023-05-25T00:45:00;96845.47;;;18.02;60.97
48778;BME280;34578;0.000;0.000;2023-05-25T00:50:02;96834.50;;;18.00;60.63
48778;BME280;34578;0.000;0.000;2023-05-25T00:55:05;96833.66;;;17.98;60.41
48778;BME280;34578;0.000;0.000;2023-05-25T01:00:08;96831.09;;;17.96;60.26
48778;BME280;34578;0.000;0.000;2023-05-25T01:05:12;96826.00;;;17.95;59.96
48778;BME280;34578;0.000;0.000;2023-05-25T01:10:14;96830.25;;;17.93;59.69
48778;BME280;34578;0.000;0.000;2023-05-25T01:15:16;96826.00;;;17.93;59.84
48778;BME280;34578;0.000;0.000;2023-05-25T01:20:18;96826.00;;;17.93;59.84
48778;BME280;34578;0.000;0.000;2023-05-25T01:25:22;96815.88;;;17.90;59.71
48778;BME280;34578;0.000;0.000;2023-05-25T01:30:25;96816.78;;;18.09;65.76
48778;BME280;34578;0.000;0.000;2023-05-25T01:35:27;96819.34;;;18.15;65.81
48778;BME280;34578;0.000;0.000;2023-05-25T01:40:27;96821.84;;;18.16;63.67
48778;BME280;34578;0.000;0.000;2023-05-25T01:45:28;96822.66;;;18.02;62.98
48778;BME280;34578;0.000;0.000;2023-05-25T01:50:53;96825.19;;;17.99;60.68
48778;BME280;34578;0.000;0.000;2023-05-25T01:56:00;96815.03;;;17.96;60.38
48778;BME280;34578;0.000;0.000;2023-05-25T02:01:03;96814.22;;;17.95;60.21
48778;BME280;34578;0.000;0.000;2023-05-25T02:06:04;96811.66;;;17.94;60.22
48778;BME280;34578;0.000;0.000;2023-05-25T02:11:08;96812.50;;;17.91;60.14
48778;BME280;34578;0.000;0.000;2023-05-25T02:16:09;96801.53;;;17.91;59.86
48778;BME280;34578;0.000;0.000;2023-05-25T02:21:10;96801.53;;;17.91;59.70
48778;BME280;34578;0.000;0.000;2023-05-25T02:26:10;96788.00;;;17.86;59.88
48778;BME280;34578;0.000;0.000;2023-05-25T02:31:11;96791.41;;;17.94;60.66
48778;BME280;34578;0.000;0.000;2023-05-25T02:36:12;96790.59;;;18.10;65.77
48778;BME280;34578;0.000;0.000;2023-05-25T02:41:14;96797.38;;;18.15;65.14
48778;BME280;34578;0.000;0.000;2023-05-25T02:46:15;96781.28;;;18.06;63.35
48778;BME280;34578;0.000;0.000;2023-05-25T02:51:15;96782.13;;;17.99;61.87
48778;BME280;34578;0.000;0.000;2023-05-25T02:56:15;96793.94;;;17.95;60.39
48778;BME280;34578;0.000;0.000;2023-05-25T03:01:16;96785.50;;;17.96;60.17
48778;BME280;34578;0.000;0.000;2023-05-25T03:06:25;96799.84;;;17.97;59.87
48778;BME280;34578;0.000;0.000;2023-05-25T03:11:30;96807.44;;;18.00;59.71
48778;BME280;34578;0.000;0.000;2023-05-25T03:16:32;96808.31;;;18.01;59.40
48778;BME280;34578;0.000;0.000;2023-05-25T03:21:36;96816.75;;;18.01;59.22
48778;BME280;34578;0.000;0.000;2023-05-25T03:26:40;96815.91;;;18.01;59.03
48778;BME280;34578;0.000;0.000;2023-05-25T03:31:40;96811.69;;;18.00;59.42
48778;BME280;34578;0.000;0.000;2023-05-25T03:36:44;96808.34;;;18.13;65.46
48778;BME280;34578;0.000;0.000;2023-05-25T03:41:48;96810.03;;;18.18;65.64
48778;BME280;34578;0.000;0.000;2023-05-25T03:46:49;96811.75;;;18.15;61.49
48778;BME280;34578;0.000;0.000;2023-05-25T03:51:50;96813.38;;;18.08;60.00
48778;BME280;34578;0.000;0.000;2023-05-25T03:56:50;96812.53;;;18.05;59.73
48778;BME280;34578;0.000;0.000;2023-05-25T04:01:50;96811.69;;;18.03;59.77
48778;BME280;34578;0.000;0.000;2023-05-25T04:06:51;96815.06;;;18.02;59.89
48778;BME280;34578;0.000;0.000;2023-05-25T04:11:51;96817.63;;;18.03;59.45
48778;BME280;34578;0.000;0.000;2023-05-25T04:16:52;96820.97;;;18.04;59.50
48778;BME280;34578;0.000;0.000;2023-05-25T04:21:53;96812.53;;;18.05;59.39
48778;BME280;34578;0.000;0.000;2023-05-25T04:26:54;96812.53;;;18.05;59.34
48778;BME280;34578;0.000;0.000;2023-05-25T04:31:56;96810.84;;;18.04;59.38
48778;BME280;34578;0.000;0.000;2023-05-25T04:37:15;96814.25;;;18.04;59.24
48778;BME280;34578;0.000;0.000;2023-05-25T04:42:16;96826.94;;;18.18;63.60
48778;BME280;34578;0.000;0.000;2023-05-25T04:47:17;96836.22;;;18.22;62.41
48778;BME280;34578;0.000;0.000;2023-05-25T04:52:18;96822.66;;;18.05;58.60
48778;BME280;34578;0.000;0.000;2023-05-25T04:57:19;96823.44;;;17.84;56.84
48778;BME280;34578;0.000;0.000;2023-05-25T05:02:20;96817.50;;;17.81;56.25
48778;BME280;34578;0.000;0.000;2023-05-25T05:07:21;96831.09;;;17.95;57.73
48778;BME280;34578;0.000;0.000;2023-05-25T05:12:22;96837.00;;;17.97;58.52
48778;BME280;34578;0.000;0.000;2023-05-25T05:17:25;96840.41;;;17.99;58.38
48778;BME280;34578;0.000;0.000;2023-05-25T05:22:27;96848.81;;;17.99;59.79
48778;BME280;34578;0.000;0.000;2023-05-25T05:27:27;96852.22;;;18.00;58.26
48778;BME280;34578;0.000;0.000;2023-05-25T05:32:35;96858.88;;;17.74;56.39
48778;BME280;34578;0.000;0.000;2023-05-25T05:37:36;96857.22;;;17.88;57.35
48778;BME280;34578;0.000;0.000;2023-05-25T05:42:36;96841.22;;;17.95;59.00
48778;BME280;34578;0.000;0.000;2023-05-25T05:47:37;96859.00;;;18.08;60.09
48778;BME280;34578;0.000;0.000;2023-05-25T05:52:37;96855.63;;;18.11;59.49
48778;BME280;34578;0.000;0.000;2023-05-25T05:57:37;96845.47;;;18.02;57.00
48778;BME280;34578;0.000;0.000;2023-05-25T06:02:38;96842.91;;;17.97;56.74
48778;BME280;34578;0.000;0.000;2023-05-25T06:07:39;96847.97;;;17.96;56.77
48778;BME280;34578;0.000;0.000;2023-05-25T06:12:39;96842.06;;;17.94;56.58
48778;BME280;34578;0.000;0.000;2023-05-25T06:17:40;96840.38;;;17.93;56.21
48778;BME280;34578;0.000;0.000;2023-05-25T06:22:44;96836.13;;;17.89;56.49
48778;BME280;34578;0.000;0.000;2023-05-25T06:27:44;96840.38;;;17.93;56.38
48778;BME280;34578;0.000;0.000;2023-05-25T06:32:46;96845.44;;;17.93;56.49
48778;BME280;34578;0.000;0.000;2023-05-25T06:37:47;96835.31;;;17.93;56.44
48778;BME280;34578;0.000;0.000;2023-05-25T06:42:48;96841.22;;;17.92;56.25
48778;BME280;34578;0.000;0.000;2023-05-25T06:48:07;96850.53;;;18.05;60.87
48778;BME280;34578;0.000;0.000;2023-05-25T06:53:08;96864.94;;;18.10;60.94
48778;BME280;34578;0.000;0.000;2023-05-25T06:58:10;96865.75;;;18.09;58.89
48778;BME280;34578;0.000;0.000;2023-05-25T07:03:10;96865.72;;;18.02;56.69
48778;BME280;34578;0.000;0.000;2023-05-25T07:08:11;96871.63;;;17.98;56.30
48778;BME280;34578;0.000;0.000;2023-05-25T07:13:12;96877.53;;;17.95;56.40
48778;BME280;34578;0.000;0.000;2023-05-25T07:18:12;96874.97;;;17.91;56.17
48778;BME280;34578;0.000;0.000;2023-05-25T07:23:13;96887.63;;;17.92;56.13
48778;BME280;34578;0.000;0.000;2023-05-25T07:28:14;96892.72;;;17.91;56.10
48778;BME280;34578;0.000;0.000;2023-05-25T07:33:14;96892.72;;;17.91;56.29
48778;BME280;34578;0.000;0.000;2023-05-25T07:38:14;96890.19;;;17.91;56.00
48778;BME280;34578;0.000;0.000;2023-05-25T07:43:15;96891.84;;;17.90;56.02
48778;BME280;34578;0.000;0.000;2023-05-25T07:48:15;96914.66;;;17.92;56.33
48778;BME280;34578;0.000;0.000;2023-05-25T07:53:15;96928.22;;;18.06;61.31
48778;BME280;34578;0.000;0.000;2023-05-25T07:58:16;96930.81;;;18.12;61.32
48778;BME280;34578;0.000;0.000;2023-05-25T08:03:16;96907.16;;;18.10;58.93
48778;BME280;34578;0.000;0.000;2023-05-25T08:08:17;96913.03;;;18.00;57.05
48778;BME280;34578;0.000;0.000;2023-05-25T08:13:17;96907.06;;;17.95;56.35
48778;BME280;34578;0.000;0.000;2023-05-25T08:18:18;96902.84;;;17.91;56.15
48778;BME280;34578;0.000;0.000;2023-05-25T08:23:18;96911.28;;;17.93;56.29
48778;BME280;34578;0.000;0.000;2023-05-25T08:28:20;96909.59;;;17.92;56.19
48778;BME280;34578;0.000;0.000;2023-05-25T08:33:21;96909.59;;;17.90;56.05
48778;BME280;34578;0.000;0.000;2023-05-25T08:38:23;96912.13;;;17.90;56.22
48778;BME280;34578;0.000;0.000;2023-05-25T08:43:24;96923.94;;;17.90;56.21
48778;BME280;34578;0.000;0.000;2023-05-25T08:48:26;96929.00;;;17.90;56.23
48778;BME280;34578;0.000;0.000;2023-05-25T08:53:33;96948.44;;;17.91;56.38
48778;BME280;34578;0.000;0.000;2023-05-25T08:58:38;96935.03;;;18.07;62.07
48778;BME280;34578;0.000;0.000;2023-05-25T09:03:42;96943.47;;;18.10;62.49
48778;BME280;34578;0.000;0.000;2023-05-25T09:08:43;96949.34;;;18.05;58.54
48778;BME280;34578;0.000;0.000;2023-05-25T09:13:44;96951.00;;;17.98;56.64
48778;BME280;34578;0.000;0.000;2023-05-25T09:18:45;96958.56;;;17.94;56.47
48778;BME280;34578;0.000;0.000;2023-05-25T09:23:46;96966.16;;;17.92;56.69
48778;BME280;34578;0.000;0.000;2023-05-25T09:28:46;96967.84;;;17.92;56.43
48778;BME280;34578;0.000;0.000;2023-05-25T09:33:47;96979.66;;;17.91;56.19
48778;BME280;34578;0.000;0.000;2023-05-25T09:38:47;96979.66;;;17.88;56.30
48778;BME280;34578;0.000;0.000;2023-05-25T09:43:48;96980.47;;;17.89;56.30
48778;BME280;34578;0.000;0.000;2023-05-25T09:48:49;96990.63;;;17.89;56.36
48778;BME280;34578;0.000;0.000;2023-05-25T09:53:52;96982.22;;;17.90;58.52
48778;BME280;34578;0.000;0.000;2023-05-25T09:58:53;96995.72;;;17.92;58.26
48778;BME280;34578;0.000;0.000;2023-05-25T10:03:54;97000.88;;;18.07;62.36
48778;BME280;34578;0.000;0.000;2023-05-25T10:08:59;97002.59;;;18.08;59.68
48778;BME280;34578;0.000;0.000;2023-05-25T10:14:01;96994.06;;;18.01;57.75
48778;BME280;34578;0.000;0.000;2023-05-25T10:19:10;97005.03;;;17.96;56.61
48778;BME280;34578;0.000;0.000;2023-05-25T10:24:23;97013.44;;;17.92;57.50
48778;BME280;34578;0.000;0.000;2023-05-25T10:29:24;97007.53;;;17.90;57.06
48778;BME280;34578;0.000;0.000;2023-05-25T10:34:25;97003.28;;;17.87;56.76
48778;BME280;34578;0.000;0.000;2023-05-25T10:39:26;97015.13;;;17.90;56.64
48778;BME280;34578;0.000;0.000;2023-05-25T10:44:29;97008.34;;;17.89;56.41
48778;BME280;34578;0.000;0.000;2023-05-25T10:49:31;97020.19;;;17.88;56.61
48778;BME280;34578;0.000;0.000;2023-05-25T10:54:32;97012.56;;;17.87;56.60
48778;BME280;34578;0.000;0.000;2023-05-25T10:59:39;97022.69;;;17.87;56.51
48778;BME280;34578;0.000;0.000;2023-05-25T11:04:39;97029.56;;;18.00;59.81
48778;BME280;34578;0.000;0.000;2023-05-25T11:09:41;97027.94;;;18.14;61.12
48778;BME280;34578;0.000;0.000;2023-05-25T11:14:42;97034.72;;;18.18;59.68
48778;BME280;34578;0.000;0.000;2023-05-25T11:19:52;97021.97;;;18.06;58.00
48778;BME280;34578;0.000;0.000;2023-05-25T11:24:52;97031.22;;;17.98;56.78
48778;BME280;34578;0.000;0.000;2023-05-25T11:29:53;97026.97;;;17.97;57.33
48778;BME280;34578;0.000;0.000;2023-05-25T11:34:55;97030.34;;;17.93;57.09
48778;BME280;34578;0.000;0.000;2023-05-25T11:39:56;97026.13;;;17.92;58.04
48778;BME280;34578;0.000;0.000;2023-05-25T11:45:00;97030.31;;;17.91;58.37
48778;BME280;34578;0.000;0.000;2023-05-25T11:50:01;97026.13;;;17.92;58.62
48778;BME280;34578;0.000;0.000;2023-05-25T11:55:09;97031.19;;;17.92;58.74
48778;BME280;34578;0.000;0.000;2023-05-25T12:00:10;97033.69;;;17.90;58.91
48778;BME280;34578;0.000;0.000;2023-05-25T12:05:13;97027.75;;;17.87;58.32
48778;BME280;34578;0.000;0.000;2023-05-25T12:10:15;97019.34;;;17.92;60.42
48778;BME280;34578;0.000;0.000;2023-05-25T12:15:19;97024.59;;;18.15;62.47
48778;BME280;34578;0.000;0.000;2023-05-25T12:20:20;97016.16;;;18.16;60.85
48778;BME280;34578;0.000;0.000;2023-05-25T12:25:21;97020.31;;;18.08;59.89
48778;BME280;34578;0.000;0.000;2023-05-25T12:30:27;97014.34;;;18.03;59.68
48778;BME280;34578;0.000;0.000;2023-05-25T12:35:28;97012.63;;;17.96;59.08
48778;BME280;34578;0.000;0.000;2023-05-25T12:40:29;97016.84;;;17.95;59.27
48778;BME280;34578;0.000;0.000;2023-05-25T12:45:29;97012.63;;;17.93;59.66
48778;BME280;34578;0.000;0.000;2023-05-25T12:50:29;97005.00;;;17.93;59.57
48778;BME280;34578;0.000;0.000;2023-05-25T12:55:31;96998.25;;;17.92;59.15
48778;BME280;34578;0.000;0.000;2023-05-25T13:00:38;97007.53;;;17.93;59.29
48778;BME280;34578;0.000;0.000;2023-05-25T13:05:38;97000.78;;;17.92;59.39
48778;BME280;34578;0.000;0.000;2023-05-25T13:10:39;97010.91;;;17.92;59.21
48778;BME280;34578;0.000;0.000;2023-05-25T13:15:39;97004.19;;;17.97;62.78
48778;BME280;34578;0.000;0.000;2023-05-25T13:20:39;96997.53;;;18.14;61.78
48778;BME280;34578;0.000;0.000;2023-05-25T13:25:40;96995.00;;;18.18;61.47
48778;BME280;34578;0.000;0.000;2023-05-25T13:30:41;96992.44;;;18.11;60.07
48778;BME280;34578;0.000;0.000;2023-05-25T13:35:41;96993.28;;;18.05;60.73
48778;BME280;34578;0.000;0.000;2023-05-25T13:40:57;96994.09;;;18.03;60.81
48778;BME280;34578;0.000;0.000;2023-05-25T13:45:57;96982.25;;;17.99;60.81
48778;BME280;34578;0.000;0.000;2023-05-25T13:50:58;96976.31;;;17.95;61.78
48778;BME280;34578;0.000;0.000;2023-05-25T13:55:59;96992.34;;;17.96;60.73
48778;BME280;34578;0.000;0.000;2023-05-25T14:00:59;96998.28;;;17.96;61.47
48778;BME280;34578;0.000;0.000;2023-05-25T14:05:59;96994.03;;;17.94;60.36
48778;BME280;34578;0.000;0.000;2023-05-25T14:11:00;96984.78;;;17.99;61.66
48778;BME280;34578;0.000;0.000;2023-05-25T14:16:01;96988.19;;;18.02;60.56
48778;BME280;34578;0.000;0.000;2023-05-25T14:21:02;96994.13;;;18.09;62.68
48778;BME280;34578;0.000;0.000;2023-05-25T14:26:03;96993.38;;;18.23;64.30
48778;BME280;34578;0.000;0.000;2023-05-25T14:31:03;97002.69;;;18.26;63.00
48778;BME280;34578;0.000;0.000;2023-05-25T14:36:04;97003.47;;;18.16;61.63
48778;BME280;34578;0.000;0.000;2023-05-25T14:41:05;96995.81;;;18.08;60.58
48778;BME280;34578;0.000;0.000;2023-05-25T14:46:05;96994.09;;;18.03;60.74
48778;BME280;34578;0.000;0.000;2023-05-25T14:51:08;96999.16;;;18.03;61.05
48778;BME280;34578;0.000;0.000;2023-05-25T14:56:09;96994.94;;;18.02;60.86
48778;BME280;34578;0.000;0.000;2023-05-25T15:01:09;97010.13;;;18.00;60.51
48778;BME280;34578;0.000;0.000;2023-05-25T15:06:09;96997.44;;;17.97;60.51
48778;BME280;34578;0.000;0.000;2023-05-25T15:11:10;97006.72;;;17.97;60.63
48778;BME280;34578;0.000;0.000;2023-05-25T15:16:14;97011.81;;;17.98;60.64
48778;BME280;34578;0.000;0.000;2023-05-25T15:21:15;97018.53;;;17.96;60.42
48778;BME280;34578;0.000;0.000;2023-05-25T15:26:15;97005.97;;;18.10;62.67
48778;BME280;34578;0.000;0.000;2023-05-25T15:31:16;97009.41;;;18.25;63.40
48778;BME280;34578;0.000;0.000;2023-05-25T15:36:16;97016.19;;;18.28;62.85
48778;BME280;34578;0.000;0.000;2023-05-25T15:41:17;97015.31;;;18.17;62.22
48778;BME280;34578;0.000;0.000;2023-05-25T15:46:17;97015.25;;;18.08;60.94
48778;BME280;34578;0.000;0.000;2023-05-25T15:51:17;97021.97;;;18.06;60.73
48778;BME280;34578;0.000;0.000;2023-05-25T15:56:18;97033.81;;;18.02;60.67
48778;BME280;34578;0.000;0.000;2023-05-25T16:01:18;97036.31;;;18.01;60.52
48778;BME280;34578;0.000;0.000;2023-05-25T16:06:22;97043.09;;;18.03;62.00
48778;BME280;34578;0.000;0.000;2023-05-25T16:11:22;97032.91;;;18.00;60.68
48778;BME280;34578;0.000;0.000;2023-05-25T16:16:23;97018.50;;;17.90;61.80
48778;BME280;34578;0.000;0.000;2023-05-25T16:21:23;97027.88;;;18.03;61.13
48778;BME280;34578;0.000;0.000;2023-05-25T16:26:23;97038.81;;;17.99;60.89
48778;BME280;34578;0.000;0.000;2023-05-25T16:31:24;97042.28;;;18.12;62.85
48778;BME280;34578;0.000;0.000;2023-05-25T16:36:24;97039.00;;;18.26;63.41
48778;BME280;34578;0.000;0.000;2023-05-25T16:41:25;97041.59;;;18.31;62.88
48778;BME280;34578;0.000;0.000;2023-05-25T16:46:26;97038.13;;;18.20;62.69
48778;BME280;34578;0.000;0.000;2023-05-25T16:51:26;97038.88;;;18.08;60.89
48778;BME280;34578;0.000;0.000;2023-05-25T16:56:27;97043.91;;;18.04;60.30
48778;BME280;34578;0.000;0.000;2023-05-25T17:01:27;97044.75;;;18.03;60.54
48778;BME280;34578;0.000;0.000;2023-05-25T17:06:28;97043.06;;;18.02;60.56
48778;BME280;34578;0.000;0.000;2023-05-25T17:11:28;97041.38;;;18.01;60.42
48778;BME280;34578;0.000;0.000;2023-05-25T17:16:28;97049.00;;;18.02;60.43
48778;BME280;34578;0.000;0.000;2023-05-25T17:21:29;97049.00;;;18.02;60.53
48778;BME280;34578;0.000;0.000;2023-05-25T17:26:29;97054.06;;;18.05;60.80
48778;BME280;34578;0.000;0.000;2023-05-25T17:31:30;97063.38;;;18.09;60.10
48778;BME280;34578;0.000;0.000;2023-05-25T17:36:31;97060.06;;;18.18;62.43
48778;BME280;34578;0.000;0.000;2023-05-25T17:41:31;97066.13;;;18.32;65.39
48778;BME280;34578;0.000;0.000;2023-05-25T17:46:31;97068.66;;;18.32;61.21
48778;BME280;34578;0.000;0.000;2023-05-25T17:51:32;97075.31;;;18.24;59.57
48778;BME280;34578;0.000;0.000;2023-05-25T17:56:32;97071.94;;;18.20;60.07
48778;BME280;34578;0.000;0.000;2023-05-25T18:01:32;97082.91;;;18.19;61.86
48778;BME280;34578;0.000;0.000;2023-05-25T18:06:34;97087.94;;;18.15;61.62
48778;BME280;34578;0.000;0.000;2023-05-25T18:11:36;97082.84;;;18.10;62.35
48778;BME280;34578;0.000;0.000;2023-05-25T18:16:36;97092.94;;;18.07;61.82
48778;BME280;34578;0.000;0.000;2023-05-25T18:21:38;97095.44;;;18.06;61.53
48778;BME280;34578;0.000;0.000;2023-05-25T18:26:39;97097.13;;;18.04;61.60
48778;BME280;34578;0.000;0.000;2023-05-25T18:31:41;97095.44;;;18.03;63.20
48778;BME280;34578;0.000;0.000;2023-05-25T18:36:45;97096.41;;;18.20;62.66
48778;BME280;34578;0.000;0.000;2023-05-25T18:41:46;97092.28;;;18.32;65.69
48778;BME280;34578;0.000;0.000;2023-05-25T18:46:46;97101.63;;;18.36;62.53
48778;BME280;34578;0.000;0.000;2023-05-25T18:51:49;97112.44;;;18.19;61.56
48778;BME280;34578;0.000;0.000;2023-05-25T18:56:50;97107.38;;;18.16;61.49
48778;BME280;34578;0.000;0.000;2023-05-25T19:01:50;97112.38;;;18.10;60.91
48778;BME280;34578;0.000;0.000;2023-05-25T19:06:50;97108.97;;;18.06;60.48
48778;BME280;34578;0.000;0.000;2023-05-25T19:11:51;97116.56;;;18.05;60.74
48778;BME280;34578;0.000;0.000;2023-05-25T19:16:51;97120.78;;;18.03;60.51
48778;BME280;34578;0.000;0.000;2023-05-25T19:21:52;97114.84;;;17.98;59.78
48778;BME280;34578;0.000;0.000;2023-05-25T19:26:52;97116.53;;;18.00;60.10
48778;BME280;34578;0.000;0.000;2023-05-25T19:31:53;97123.28;;;18.00;59.93
48778;BME280;34578;0.000;0.000;2023-05-25T19:36:53;97128.34;;;17.98;59.81
48778;BME280;34578;0.000;0.000;2023-05-25T19:41:54;97131.72;;;18.00;62.00
48778;BME280;34578;0.000;0.000;2023-05-25T19:46:55;97151.31;;;18.21;60.06
48778;BME280;34578;0.000;0.000;2023-05-25T19:51:55;97153.13;;;18.31;60.36
48778;BME280;34578;0.000;0.000;2023-05-25T19:56:55;97161.44;;;18.18;59.66
48778;BME280;34578;0.000;0.000;2023-05-25T20:01:56;97158.88;;;18.13;59.07
48778;BME280;34578;0.000;0.000;2023-05-25T20:06:56;97174.06;;;18.10;58.76
48778;BME280;34578;0.000;0.000;2023-05-25T20:11:57;97176.56;;;18.09;58.73
48778;BME280;34578;0.000;0.000;2023-05-25T20:16:58;97174.81;;;18.05;58.71
48778;BME280;34578;0.000;0.000;2023-05-25T20:21:58;97181.59;;;18.06;58.68
48778;BME280;34578;0.000;0.000;2023-05-25T20:27:02;97174.84;;;18.06;58.65
48778;BME280;34578;0.000;0.000;2023-05-25T20:32:03;97184.97;;;18.05;58.62
48778;BME280;34578;0.000;0.000;2023-05-25T20:37:03;97178.22;;;18.05;58.73
48778;BME280;34578;0.000;0.000;2023-05-25T20:42:03;97190.91;;;18.05;58.68
48778;BME280;34578;0.000;0.000;2023-05-25T20:47:04;97179.91;;;18.05;58.76
48778;BME280;34578;0.000;0.000;2023-05-25T20:52:05;97190.22;;;18.26;66.17
48778;BME280;34578;0.000;0.000;2023-05-25T20:57:05;97186.94;;;18.33;66.49
48778;BME280;34578;0.000;0.000;2023-05-25T21:02:06;97189.41;;;18.27;61.87
48778;BME280;34578;0.000;0.000;2023-05-25T21:07:07;97174.91;;;18.14;59.31
48778;BME280;34578;0.000;0.000;2023-05-25T21:12:07;97185.91;;;18.17;59.01
48778;BME280;34578;0.000;0.000;2023-05-25T21:17:08;97196.06;;;18.16;58.98
48778;BME280;34578;0.000;0.000;2023-05-25T21:22:08;97193.47;;;18.13;59.00
48778;BME280;34578;0.000;0.000;2023-05-25T21:27:10;97201.94;;;18.12;59.19
48778;BME280;34578;0.000;0.000;2023-05-25T21:32:11;97208.66;;;18.10;58.96
48778;BME280;34578;0.000;0.000;2023-05-25T21:37:11;97196.81;;;18.07;58.85
48778;BME280;34578;0.000;0.000;2023-05-25T21:42:12;97202.75;;;18.08;58.89
48778;BME280;34578;0.000;0.000;2023-05-25T21:47:12;97200.16;;;18.05;58.68
48778;BME280;34578;0.000;0.000;2023-05-25T21:52:12;97205.22;;;18.05;58.74
48778;BME280;34578;0.000;0.000;2023-05-25T21:57:13;97213.03;;;18.24;65.81
48778;BME280;34578;0.000;0.000;2023-05-25T22:02:13;97197.91;;;18.33;67.34
48778;BME280;34578;0.000;0.000;2023-05-25T22:07:13;97191.94;;;18.27;62.01
48778;BME280;34578;0.000;0.000;2023-05-25T22:12:14;97196.88;;;18.13;60.31
48778;BME280;34578;0.000;0.000;2023-05-25T22:17:14;97204.47;;;18.12;59.76
48778;BME280;34578;0.000;0.000;2023-05-25T22:22:16;97213.75;;;18.10;59.60
48778;BME280;34578;0.000;0.000;2023-05-25T22:27:16;97206.13;;;18.07;59.42
48778;BME280;34578;0.000;0.000;2023-05-25T22:32:17;97208.66;;;18.07;59.40
48778;BME280;34578;0.000;0.000;2023-05-25T22:37:17;97206.94;;;18.06;59.46
48778;BME280;34578;0.000;0.000;2023-05-25T22:42:17;97203.53;;;18.04;59.11
48778;BME280;34578;0.000;0.000;2023-05-25T22:47:18;97204.34;;;18.01;59.26
48778;BME280;34578;0.000;0.000;2023-05-25T22:52:18;97207.78;;;18.03;59.18
48778;BME280;34578;0.000;0.000;2023-05-25T22:57:19;97201.84;;;18.03;58.87
48778;BME280;34578;0.000;0.000;2023-05-25T23:02:19;97196.94;;;18.19;62.90
48778;BME280;34578;0.000;0.000;2023-05-25T23:07:20;97189.44;;;18.30;67.49
48778;BME280;34578;0.000;0.000;2023-05-25T23:12:20;97187.72;;;18.29;63.18
48778;BME280;34578;0.000;0.000;2023-05-25T23:17:21;97189.31;;;18.18;60.86
48778;BME280;34578;0.000;0.000;2023-05-25T23:22:22;97190.97;;;18.11;60.25
48778;BME280;34578;0.000;0.000;2023-05-25T23:27:23;97185.84;;;18.08;59.88
48778;BME280;34578;0.000;0.000;2023-05-25T23:32:23;97186.66;;;18.06;59.59
48778;BME280;34578;0.000;0.000;2023-05-25T23:37:23;97184.13;;;18.04;59.49
48778;BME280;34578;0.000;0.000;2023-05-25T23:42:26;97184.97;;;18.03;59.48
48778;BME280;34578;0.000;0.000;2023-05-25T23:47:27;97190.00;;;18.02;59.45
48778;BME280;34578;0.000;0.000;2023-05-25T23:52:27;97191.69;;;18.01;59.26
48778;BME280;34578;0.000;0.000;2023-05-25T23:57:27;97195.09;;;18.02;59.28
